createdAt,value
2023-02-11T00:01:36.236Z,-3.08
2023-02-11T00:04:39.094Z,-3.07
2023-02-11T00:07:41.643Z,-3.09
2023-02-11T00:10:46.480Z,-3.08
2023-02-11T00:13:49.669Z,-3.08
2023-02-11T00:16:52.514Z,-3.17
2023-02-11T00:19:55.164Z,-3.25
2023-02-11T00:22:57.994Z,-3.17
2023-02-11T00:26:00.648Z,-3.25
2023-02-11T00:29:05.190Z,-3.28
2023-02-11T00:32:08.990Z,-3.11
2023-02-11T00:35:11.829Z,-3.19
2023-02-11T00:38:15.198Z,-3.29
2023-02-11T00:41:19.355Z,-3.39
2023-02-11T00:44:22.097Z,-3.28
2023-02-11T00:47:25.098Z,-3.23
2023-02-11T00:50:27.784Z,-3.41
2023-02-11T00:53:32.524Z,-3.47
2023-02-11T00:56:35.854Z,-3.47
2023-02-11T00:59:38.742Z,-3.47
2023-02-11T01:02:41.519Z,-3.42
2023-02-11T01:05:48.097Z,-3.40
2023-02-11T01:08:50.827Z,-3.48
2023-02-11T01:11:53.678Z,-3.44
2023-02-11T01:14:56.284Z,-3.48
2023-02-11T01:17:59.368Z,-3.48
2023-02-11T01:21:02.100Z,-3.39
2023-02-11T01:24:05.421Z,-3.35
2023-02-11T01:27:08.056Z,-3.37
2023-02-11T01:30:13.302Z,-3.42
2023-02-11T01:33:16.398Z,-3.32
2023-02-11T01:36:19.273Z,-3.44
2023-02-11T01:39:21.842Z,-3.52
2023-02-11T01:42:24.986Z,-3.54
2023-02-11T01:45:42.749Z,-3.61
2023-02-11T01:48:55.447Z,-3.55
2023-02-11T01:52:06.334Z,-3.63
2023-02-11T01:55:31.458Z,-3.65
2023-02-11T01:58:36.446Z,-3.71
2023-02-11T02:01:42.979Z,-3.69
2023-02-11T02:04:55.399Z,-3.73
2023-02-11T02:08:00.761Z,-3.74
2023-02-11T02:11:07.929Z,-3.72
2023-02-11T02:14:12.890Z,-3.68
2023-02-11T02:17:45.227Z,-3.66
2023-02-11T02:20:57.209Z,-3.70
2023-02-11T02:24:18.722Z,-3.75
2023-02-11T02:27:36.189Z,-3.72
2023-02-11T02:31:10.320Z,-3.72
2023-02-11T02:34:27.295Z,-3.74
2023-02-11T02:37:48.388Z,-3.71
2023-02-11T02:41:01.542Z,-3.74
2023-02-11T02:44:04.911Z,-3.81
2023-02-11T02:47:07.462Z,-3.86
2023-02-11T02:50:14.035Z,-3.94
2023-02-11T02:53:58.236Z,-4.02
2023-02-11T02:57:26.906Z,-4.09
2023-02-11T03:00:44.934Z,-4.19
2023-02-11T03:04:03.325Z,-4.26
2023-02-11T03:07:12.471Z,-4.30
2023-02-11T03:10:31.720Z,-4.33
2023-02-11T03:13:37.185Z,-4.33
2023-02-11T03:16:40.961Z,-4.27
2023-02-11T03:19:46.352Z,-4.29
2023-02-11T03:23:02.306Z,-4.32
2023-02-11T03:26:16.981Z,-4.32
2023-02-11T03:29:37.365Z,-4.31
2023-02-11T03:32:46.296Z,-4.19
2023-02-11T03:36:02.993Z,-4.21
2023-02-11T03:39:07.212Z,-4.33
2023-02-11T03:42:12.879Z,-4.29
2023-02-11T03:45:20.017Z,-4.32
2023-02-11T03:48:27.975Z,-4.36
2023-02-11T03:51:33.348Z,-4.35
2023-02-11T03:54:38.283Z,-4.28
2023-02-11T03:57:41.149Z,-4.20
2023-02-11T04:00:45.499Z,-4.22
2023-02-11T04:03:48.462Z,-4.23
2023-02-11T04:06:51.098Z,-4.24
2023-02-11T04:09:54.181Z,-4.27
2023-02-11T04:12:56.884Z,-4.32
2023-02-11T04:15:59.737Z,-4.36
2023-02-11T04:19:02.718Z,-4.39
2023-02-11T04:22:06.254Z,-4.34
2023-02-11T04:25:09.733Z,-4.29
2023-02-11T04:28:12.699Z,-4.27
2023-02-11T04:31:15.400Z,-4.33
2023-02-11T04:34:18.564Z,-4.36
2023-02-11T04:37:21.430Z,-4.39
2023-02-11T04:40:24.357Z,-4.49
2023-02-11T04:43:26.840Z,-4.47
2023-02-11T04:46:29.789Z,-4.55
2023-02-11T04:49:32.398Z,-4.59
2023-02-11T04:52:35.282Z,-4.62
2023-02-11T04:55:37.823Z,-4.64
2023-02-11T04:58:40.833Z,-4.63
2023-02-11T05:01:43.433Z,-4.61
2023-02-11T05:04:46.518Z,-4.66
2023-02-11T05:07:49.237Z,-4.43
2023-02-11T05:10:52.193Z,-4.57
2023-02-11T05:13:54.972Z,-4.67
2023-02-11T05:16:57.859Z,-4.75
2023-02-11T05:20:00.462Z,-4.73
2023-02-11T05:23:03.321Z,-4.78
2023-02-11T05:26:06.681Z,-4.80
2023-02-11T05:29:09.634Z,-4.78
2023-02-11T05:32:12.457Z,-4.78
2023-02-11T05:35:15.976Z,-4.73
2023-02-11T05:38:19.025Z,-4.71
2023-02-11T05:41:21.937Z,-4.71
2023-02-11T05:44:24.545Z,-4.76
2023-02-11T05:47:27.546Z,-4.78
2023-02-11T05:50:30.082Z,-4.77
2023-02-11T05:53:33.160Z,-4.73
2023-02-11T05:56:35.708Z,-4.60
2023-02-11T05:59:38.783Z,-4.64
2023-02-11T06:02:41.407Z,-4.58
2023-02-11T06:05:45.630Z,-4.58
2023-02-11T06:08:48.883Z,-4.50
2023-02-11T06:11:52.118Z,-4.56
2023-02-11T06:14:54.645Z,-4.58
2023-02-11T06:17:57.508Z,-4.58
2023-02-11T06:21:00.697Z,-4.54
2023-02-11T06:24:04.060Z,-4.46
2023-02-11T06:27:06.751Z,-4.41
2023-02-11T06:30:10.504Z,-4.32
2023-02-11T06:33:13.884Z,-4.22
2023-02-11T06:36:19.725Z,-4.08
2023-02-11T06:39:23.213Z,-3.94
2023-02-11T06:42:26.280Z,-3.81
2023-02-11T06:45:28.954Z,-3.69
2023-02-11T06:48:32.103Z,-3.55
2023-02-11T06:51:34.654Z,-3.43
2023-02-11T06:54:37.570Z,-3.31
2023-02-11T06:57:40.311Z,-3.22
2023-02-11T07:00:43.315Z,-3.09
2023-02-11T07:03:46.853Z,-2.93
2023-02-11T07:06:49.765Z,-2.84
2023-02-11T07:09:52.413Z,-2.64
2023-02-11T07:12:57.780Z,-2.56
2023-02-11T07:16:06.242Z,-2.41
2023-02-11T07:19:09.165Z,-2.30
2023-02-11T07:22:11.766Z,-2.16
2023-02-11T07:25:15.951Z,-1.93
2023-02-11T07:28:18.587Z,-1.58
2023-02-11T07:31:24.716Z,-1.19
2023-02-11T07:34:27.523Z,-0.84
2023-02-11T07:37:30.446Z,-0.46
2023-02-11T07:40:32.961Z,-0.16
2023-02-11T07:43:37.437Z,0.08
2023-02-11T07:46:43.144Z,0.21
2023-02-11T07:49:46.195Z,0.11
2023-02-11T07:52:48.938Z,0.16
2023-02-11T07:55:52.131Z,0.20
2023-02-11T07:58:56.873Z,0.22
2023-02-11T08:02:00.049Z,0.35
2023-02-11T08:05:02.950Z,0.39
2023-02-11T08:08:05.494Z,0.34
2023-02-11T08:11:09.542Z,0.59
2023-02-11T08:14:12.547Z,0.74
2023-02-11T08:17:15.390Z,0.86
2023-02-11T08:20:18.151Z,1.04
2023-02-11T08:23:21.051Z,1.05
2023-02-11T08:26:26.629Z,1.11
2023-02-11T08:29:30.856Z,1.16
2023-02-11T08:32:35.532Z,1.24
2023-02-11T08:35:39.875Z,1.39
2023-02-11T08:38:43.174Z,1.52
2023-02-11T08:41:48.827Z,1.72
2023-02-11T08:44:51.545Z,1.88
2023-02-11T08:47:54.532Z,1.98
2023-02-11T08:50:57.789Z,2.24
2023-02-11T08:54:01.212Z,2.53
2023-02-11T08:57:04.527Z,2.76
2023-02-11T09:00:08.318Z,2.84
2023-02-11T09:03:14.961Z,3.13
2023-02-11T09:06:18.775Z,2.99
2023-02-11T09:09:21.671Z,3.07
2023-02-11T09:12:24.724Z,3.20
2023-02-11T09:15:27.383Z,3.32
2023-02-11T09:18:30.515Z,3.55
2023-02-11T09:21:33.309Z,3.80
2023-02-11T09:24:36.507Z,4.36
2023-02-11T09:27:39.232Z,4.78
2023-02-11T09:30:42.275Z,5.09
2023-02-11T09:33:50.216Z,5.18
2023-02-11T09:36:53.309Z,4.96
2023-02-11T09:39:55.861Z,4.80
2023-02-11T09:43:16.252Z,4.73
2023-02-11T09:46:21.190Z,4.83
2023-02-11T09:49:47.109Z,5.27
2023-02-11T09:53:01.450Z,5.61
2023-02-11T09:56:12.124Z,5.80
2023-02-11T09:59:16.171Z,6.15
2023-02-11T10:02:27.294Z,6.36
2023-02-11T10:05:42.038Z,6.44
2023-02-11T10:08:53.996Z,6.15
2023-02-11T10:12:08.949Z,6.03
2023-02-11T10:15:42.995Z,5.89
2023-02-11T10:18:48.905Z,5.68
2023-02-11T10:22:06.806Z,5.64
2023-02-11T10:25:24.245Z,5.42
2023-02-11T10:28:39.412Z,5.23
2023-02-11T10:31:43.626Z,5.04
2023-02-11T10:34:46.214Z,5.00
2023-02-11T10:37:50.141Z,5.13
2023-02-11T10:40:52.982Z,5.38
2023-02-11T10:43:56.094Z,5.33
2023-02-11T10:47:05.203Z,5.48
2023-02-11T10:50:30.199Z,6.09
2023-02-11T10:53:37.472Z,6.86
2023-02-11T10:56:45.898Z,7.33
2023-02-11T10:59:49.450Z,7.42
2023-02-11T11:02:58.426Z,7.03
2023-02-11T11:06:03.795Z,7.40
2023-02-11T11:09:07.207Z,7.03
2023-02-11T11:12:49.053Z,6.96
2023-02-11T11:16:19.055Z,6.77
2023-02-11T11:19:24.000Z,6.51
2023-02-11T11:22:26.890Z,6.05
2023-02-11T11:25:30.591Z,5.94
2023-02-11T11:28:57.270Z,5.71
2023-02-11T11:32:07.235Z,5.47
2023-02-11T11:35:29.260Z,5.56
2023-02-11T11:38:33.851Z,6.01
2023-02-11T11:41:36.824Z,6.55
2023-02-11T11:44:39.940Z,6.91
2023-02-11T11:47:54.506Z,6.80
2023-02-11T11:51:04.144Z,6.66
2023-02-11T11:54:13.593Z,6.85
2023-02-11T11:57:22.081Z,6.70
2023-02-11T12:00:51.453Z,6.84
2023-02-11T12:04:31.790Z,6.84
2023-02-11T12:07:56.364Z,7.21
2023-02-11T12:11:28.478Z,7.30
2023-02-11T12:14:52.869Z,7.22
2023-02-11T12:18:27.905Z,7.20
2023-02-11T12:21:39.769Z,7.34
2023-02-11T12:25:06.311Z,7.27
2023-02-11T12:28:25.098Z,7.17
2023-02-11T12:31:40.237Z,7.12
2023-02-11T12:35:06.935Z,7.36
2023-02-11T12:38:32.551Z,7.28
2023-02-11T12:42:09.399Z,7.51
2023-02-11T12:45:15.945Z,7.41
2023-02-11T12:48:18.541Z,7.63
2023-02-11T12:51:27.927Z,7.64
2023-02-11T12:54:38.843Z,7.95
2023-02-11T12:57:44.182Z,8.03
2023-02-11T13:00:55.509Z,7.92
2023-02-11T13:04:20.099Z,7.64
2023-02-11T13:07:42.660Z,7.39
2023-02-11T13:10:50.407Z,7.69
2023-02-11T13:13:58.503Z,8.11
2023-02-11T13:17:04.070Z,8.28
2023-02-11T13:20:26.625Z,8.30
2023-02-11T13:23:53.403Z,8.11
2023-02-11T13:27:26.771Z,8.04
2023-02-11T13:30:35.254Z,8.06
2023-02-11T13:33:45.787Z,7.92
2023-02-11T13:36:56.102Z,7.96
2023-02-11T13:40:12.851Z,7.94
2023-02-11T13:43:25.351Z,7.64
2023-02-11T13:46:30.650Z,7.48
2023-02-11T13:49:40.900Z,7.45
2023-02-11T13:52:44.673Z,7.37
2023-02-11T13:55:50.827Z,7.30
2023-02-11T13:58:53.784Z,7.28
2023-02-11T14:02:18.066Z,7.39
2023-02-11T14:05:39.940Z,7.52
2023-02-11T14:08:59.067Z,7.52
2023-02-11T14:12:23.074Z,7.70
2023-02-11T14:15:27.244Z,7.65
2023-02-11T14:18:36.902Z,7.83
2023-02-11T14:21:43.309Z,8.12
2023-02-11T14:25:03.190Z,8.46
2023-02-11T14:28:24.223Z,8.88
2023-02-11T14:31:38.763Z,9.17
2023-02-11T14:35:18.254Z,9.03
2023-02-11T14:38:36.273Z,8.52
2023-02-11T14:41:42.889Z,7.98
2023-02-11T14:44:48.426Z,7.78
2023-02-11T14:47:58.307Z,7.46
2023-02-11T14:51:16.248Z,7.21
2023-02-11T14:54:25.235Z,7.25
2023-02-11T14:57:28.161Z,7.33
2023-02-11T15:00:31.031Z,7.51
2023-02-11T15:03:39.981Z,8.01
2023-02-11T15:06:47.671Z,8.42
2023-02-11T15:09:54.052Z,8.59
2023-02-11T15:12:58.464Z,8.00
2023-02-11T15:16:07.503Z,7.78
2023-02-11T15:19:19.168Z,7.47
2023-02-11T15:22:36.777Z,7.21
2023-02-11T15:25:44.348Z,7.13
2023-02-11T15:28:52.652Z,7.04
2023-02-11T15:32:24.165Z,6.89
2023-02-11T15:35:30.936Z,6.69
2023-02-11T15:38:33.740Z,6.53
2023-02-11T15:41:38.189Z,6.42
2023-02-11T15:44:41.456Z,6.34
2023-02-11T15:47:53.673Z,6.27
2023-02-11T15:51:03.603Z,6.14
2023-02-11T15:54:19.756Z,6.04
2023-02-11T15:57:23.222Z,5.95
2023-02-11T16:00:35.918Z,5.86
2023-02-11T16:03:41.681Z,5.83
2023-02-11T16:06:47.751Z,5.72
2023-02-11T16:09:58.462Z,5.67
2023-02-11T16:13:19.389Z,5.58
2023-02-11T16:16:31.436Z,5.42
2023-02-11T16:19:35.641Z,5.39
2023-02-11T16:22:39.918Z,5.32
2023-02-11T16:25:42.881Z,5.31
2023-02-11T16:28:46.762Z,5.40
2023-02-11T16:31:50.415Z,5.36
2023-02-11T16:34:57.884Z,5.41
2023-02-11T16:38:00.728Z,5.43
2023-02-11T16:41:03.911Z,5.39
2023-02-11T16:44:09.683Z,5.43
2023-02-11T16:47:22.814Z,5.36
2023-02-11T16:50:25.959Z,5.34
2023-02-11T16:53:29.147Z,5.27
2023-02-11T16:56:39.435Z,5.18
2023-02-11T16:59:43.276Z,5.21
2023-02-11T17:02:46.268Z,5.14
2023-02-11T17:05:55.603Z,5.20
2023-02-11T17:08:59.128Z,5.11
2023-02-11T17:12:02.341Z,5.07
2023-02-11T17:15:07.551Z,5.10
2023-02-11T17:18:14.248Z,5.03
2023-02-11T17:21:17.203Z,4.92
2023-02-11T17:24:21.671Z,4.79
2023-02-11T17:27:24.730Z,4.64
2023-02-11T17:30:27.821Z,4.46
2023-02-11T17:33:30.690Z,4.41
2023-02-11T17:36:34.101Z,4.32
2023-02-11T17:39:39.069Z,4.25
2023-02-11T17:42:42.438Z,4.17
2023-02-11T17:45:45.039Z,4.15
2023-02-11T17:48:48.264Z,4.15
2023-02-11T17:51:51.028Z,4.19
2023-02-11T17:54:55.382Z,4.21
2023-02-11T17:57:58.245Z,4.19
2023-02-11T18:01:01.469Z,4.20
2023-02-11T18:04:05.541Z,4.30
2023-02-11T18:07:08.624Z,4.41
2023-02-11T18:10:11.974Z,4.49
2023-02-11T18:13:14.857Z,4.39
2023-02-11T18:16:18.095Z,4.38
2023-02-11T18:19:21.327Z,4.37
2023-02-11T18:22:25.894Z,4.28
2023-02-11T18:25:30.005Z,4.37
2023-02-11T18:28:33.825Z,4.27
2023-02-11T18:31:37.333Z,4.20
2023-02-11T18:34:41.575Z,4.08
2023-02-11T18:37:44.498Z,4.02
2023-02-11T18:40:50.258Z,4.02
2023-02-11T18:43:53.208Z,4.03
2023-02-11T18:46:56.538Z,4.14
2023-02-11T18:49:59.721Z,4.33
2023-02-11T18:53:02.872Z,4.60
2023-02-11T18:56:20.254Z,4.67
2023-02-11T18:59:23.467Z,4.71
2023-02-11T19:02:26.917Z,4.71
2023-02-11T19:05:33.382Z,4.67
2023-02-11T19:08:36.355Z,4.59
2023-02-11T19:11:53.978Z,4.56
2023-02-11T19:14:59.175Z,4.61
2023-02-11T19:18:02.404Z,4.58
2023-02-11T19:21:12.450Z,4.72
2023-02-11T19:24:20.799Z,4.66
2023-02-11T19:27:23.440Z,4.57
2023-02-11T19:30:26.941Z,4.49
2023-02-11T19:33:29.730Z,4.41
2023-02-11T19:36:33.127Z,4.40
2023-02-11T19:39:36.733Z,4.45
2023-02-11T19:42:39.974Z,4.47
2023-02-11T19:45:42.915Z,4.52
2023-02-11T19:48:46.582Z,4.61
2023-02-11T19:51:54.323Z,4.55
2023-02-11T19:54:59.480Z,4.48
2023-02-11T19:58:02.209Z,4.52
2023-02-11T20:01:14.475Z,4.48
2023-02-11T20:04:17.759Z,4.49
2023-02-11T20:07:22.258Z,4.44
2023-02-11T20:10:25.383Z,4.46
2023-02-11T20:13:29.757Z,4.53
2023-02-11T20:16:47.584Z,4.44
2023-02-11T20:19:51.173Z,4.38
2023-02-11T20:22:54.237Z,4.29
2023-02-11T20:25:57.194Z,4.36
2023-02-11T20:29:04.876Z,4.19
2023-02-11T20:32:08.460Z,4.13
2023-02-11T20:35:11.769Z,4.11
2023-02-11T20:38:14.593Z,4.07
2023-02-11T20:41:22.029Z,4.09
2023-02-11T20:44:24.946Z,4.11
2023-02-11T20:47:28.126Z,4.10
2023-02-11T20:50:31.113Z,4.22
2023-02-11T20:53:35.519Z,4.20
2023-02-11T20:56:38.673Z,4.15
2023-02-11T20:59:41.651Z,4.26
2023-02-11T21:02:44.567Z,4.16
2023-02-11T21:05:47.897Z,4.18
2023-02-11T21:08:51.283Z,4.27
2023-02-11T21:11:55.884Z,4.39
2023-02-11T21:15:04.987Z,4.29
2023-02-11T21:18:08.169Z,4.21
2023-02-11T21:21:11.549Z,4.22
2023-02-11T21:24:14.795Z,4.22
2023-02-11T21:27:17.599Z,4.29
2023-02-11T21:30:20.874Z,4.31
2023-02-11T21:33:25.404Z,4.30
2023-02-11T21:36:30.324Z,4.19
2023-02-11T21:39:33.240Z,4.24
2023-02-11T21:42:36.670Z,4.31
2023-02-11T21:45:45.238Z,4.28
2023-02-11T21:48:48.920Z,4.37
2023-02-11T21:51:51.765Z,4.28
2023-02-11T21:54:54.819Z,4.13
2023-02-11T21:57:59.568Z,4.18
2023-02-11T22:01:13.730Z,4.04
2023-02-11T22:04:17.247Z,3.94
2023-02-11T22:07:20.658Z,3.82
2023-02-11T22:10:23.713Z,3.70
2023-02-11T22:13:26.359Z,3.72
2023-02-11T22:16:30.852Z,3.68
2023-02-11T22:19:34.253Z,3.76
2023-02-11T22:22:37.160Z,3.69
2023-02-11T22:25:39.904Z,3.49
2023-02-11T22:28:43.556Z,3.36
2023-02-11T22:31:46.152Z,3.48
2023-02-11T22:34:51.458Z,3.34
2023-02-11T22:37:55.448Z,3.39
2023-02-11T22:40:59.777Z,3.43
2023-02-11T22:44:02.301Z,3.36
2023-02-11T22:47:05.151Z,3.38
2023-02-11T22:50:07.891Z,3.48
2023-02-11T22:53:10.818Z,3.31
2023-02-11T22:56:15.699Z,3.01
2023-02-11T22:59:19.279Z,2.99
2023-02-11T23:02:22.006Z,2.80
2023-02-11T23:05:25.074Z,2.76
2023-02-11T23:08:28.617Z,2.62
2023-02-11T23:11:32.638Z,2.56
2023-02-11T23:14:35.182Z,2.65
2023-02-11T23:17:38.042Z,2.77
2023-02-11T23:20:42.553Z,2.72
2023-02-11T23:23:45.701Z,2.71
2023-02-11T23:26:48.293Z,2.86
2023-02-11T23:29:51.170Z,2.75
2023-02-11T23:32:53.799Z,2.95
2023-02-11T23:35:56.804Z,2.77
2023-02-11T23:38:59.922Z,2.91
2023-02-11T23:42:02.836Z,3.01
2023-02-11T23:45:06.812Z,2.88
2023-02-11T23:48:09.702Z,2.91
2023-02-11T23:51:12.401Z,3.02
2023-02-11T23:54:15.423Z,2.84
2023-02-11T23:57:18.148Z,2.83
